• Join FlightAware (Why Join?)
  • Login
  • US Flag 
02:36AM EST


 

Airport Tracker/Info


-or-


 

Live Flight TrackerFlight Track Log ✈ N777HF ✈ 01-May-2013 ✈ KTRK - KWVI

Flight Track Log - Related Links

Times and Time Zones

All times are in EDT time to prevent confusion due to time zone crossing. See the N777HF flight status page for this flight to view local times or setup timezone preferences in your user account.

Time Position Orientation Groundspeed Altitude Reporting Facility
EDT Latitude Longitude Course Direction KTS MPH feet Rate Location/Type
08:19PM 38.7686 -120.9858 62° Northeast 280 322 17,500  Level Oakland Center
08:20PM 38.8056 -120.8981 62° Northeast 279 321 17,500  Level Oakland Center
08:21PM 38.8547 -120.8211 51° Northeast 277 319 17,500  Level Oakland Center
08:22PM 38.9014 -120.7417 53° Northeast 278 320 17,500 -120 Level Oakland Center
08:24PM 38.8720 -120.7578 203° Southwest  Level Estimated
08:25PM 38.9950 -120.5839 203° Southwest 278 320 17,200  Level Oakland Center
08:26PM 39.0431 -120.5044 52° Northeast 281 323 17,200 -60 Level Oakland Center
08:27PM 39.0911 -120.4278 51° Northeast 277 319 17,100 -480 Descending Oakland Center
08:28PM 39.1456 -120.3353 53° Northeast 272 313 16,300 -60 Descending Oakland Center
08:30PM 39.0868 -120.3305 176° South  Level FlightAware Approximate
08:37PM 38.8994 -120.4616 201° Southwest  Level Estimated
08:38PM 38.8691 -120.4576 174° South  Level FlightAware Approximate
08:39PM 38.8388 -120.4536 174° South  Level FlightAware Approximate
08:40PM 38.8085 -120.4497 174° South  Level FlightAware Approximate
08:41PM 38.7782 -120.4457 174° South  Level FlightAware Approximate
08:42PM 38.7478 -120.4417 174° South  Level FlightAware Approximate
08:43PM 38.7217 -120.4618 201° Southwest  Level Estimated
08:44PM 38.6955 -120.4818 205° Southwest  Level Estimated
08:45PM 38.6652 -120.4861 186° South  Level FlightAware Approximate
08:46PM 38.6350 -120.4903 186° South  Level FlightAware Approximate
08:47PM 38.6090 -120.5107 200° South  Level Estimated
08:48PM 38.5800 -120.5228 198° South  Level FlightAware Approximate
08:49PM 38.5511 -120.5349 198° South  Level FlightAware Approximate
08:50PM 38.5221 -120.5470 198° South  Level FlightAware Approximate
08:51PM 38.4931 -120.5591 198° South  Level FlightAware Approximate
08:52PM 38.4641 -120.5711 198° South  Level FlightAware Approximate
08:53PM 38.4352 -120.5831 198° South  Level FlightAware Approximate
08:54PM 38.4062 -120.5952 198° South  Level FlightAware Approximate
08:55PM 38.3772 -120.6072 198° South  Level FlightAware Approximate
08:56PM 38.3483 -120.6192 198° South  Level FlightAware Approximate
08:57PM 38.3193 -120.6312 198° South  Level FlightAware Approximate
08:58PM 38.2903 -120.6432 198° South  Level FlightAware Approximate
08:59PM 38.2613 -120.6552 198° South  Level FlightAware Approximate
09:00PM 38.2323 -120.6672 198° South  Level FlightAware Approximate
09:01PM 38.2034 -120.6792 198° South  Level FlightAware Approximate
09:02PM 38.1744 -120.6911 198° South  Level FlightAware Approximate
09:03PM 38.1454 -120.7031 198° South  Level FlightAware Approximate
09:04PM 38.1164 -120.7150 198° South  Level FlightAware Approximate
09:04PM 39.1064 -120.3228 209° Southwest 244 281 16,200  Level Oakland Center
09:05PM 38.0874 -120.7269 198° South  Level FlightAware Approximate
09:05PM 39.0406 -120.3664 207° Southwest 263 303 16,200  Level Oakland Center
09:06PM 38.0584 -120.7389 198° South  Level FlightAware Approximate
09:06PM 38.9747 -120.4128 209° Southwest 268 308 16,200  Level Oakland Center
09:07PM 38.0294 -120.7508 198° South  Level FlightAware Approximate
09:07PM 38.9083 -120.4594 209° Southwest 272 313 16,200  Level Oakland Center
09:08PM 38.0052 -120.7742 270° West  Level Estimated
09:08PM 38.8400 -120.5067 208° Southwest 275 316 16,200  Level Oakland Center
09:09PM 38.7739 -120.5522 208° Southwest 270 311 16,500 120 Climbing Oakland Center
09:10PM 38.6950 -120.6064 208° Southwest 269 310 16,500  Level Oakland Center
09:11PM 38.6286 -120.6533 209° Southwest 270 311 16,500  Level Oakland Center
09:12PM 38.5603 -120.6997 208° Southwest 275 316 16,500  Level Oakland Center
09:13PM 38.4936 -120.7458 208° Southwest 273 314 16,500  Level Oakland Center
09:14PM 38.4267 -120.7917 208° Southwest 272 313 16,500  Level Oakland Center
09:15PM 38.3597 -120.8367 208° Southwest 270 311 16,500  Level Oakland Center
09:16PM 38.2928 -120.8822 208° Southwest 271 312 16,500  Level Oakland Center
09:17PM 38.2267 -120.9272 208° Southwest 268 308 16,500  Level Oakland Center
09:18PM 38.1611 -120.9722 208° Southwest 268 308 16,500  Level Oakland Center
09:19PM 38.0944 -121.0167 208° Southwest 269 310 16,500  Level Oakland Center
09:20PM 38.0278 -121.0603 207° Southwest 269 310 16,500  Level Oakland Center
09:21PM 37.9617 -121.1067 209° Southwest 271 312 16,500  Level Oakland Center
09:21PM 37.9167 -121.1333 205° Southwest 265 305 16,500  Level Northern Cal TRACON
09:22PM 37.8500 -121.1833 211° Southwest 341 392 16,500  Level Northern Cal TRACON
09:23PM 37.7833 -121.2167 202° Southwest 283 326 16,500  Level Northern Cal TRACON
09:24PM 37.7167 -121.2667 211° Southwest 263 303 16,500  Level Northern Cal TRACON
09:25PM 37.6500 -121.3167 211° Southwest 265 305 16,500  Level Northern Cal TRACON
09:26PM 37.5833 -121.3667 211° Southwest 267 307 16,500  Level Northern Cal TRACON
09:27PM 37.5167 -121.4000 202° Southwest 271 312 16,500  Level Northern Cal TRACON
09:28PM 37.4500 -121.4500 211° Southwest 269 310 16,500  Level Northern Cal TRACON
09:29PM 37.3833 -121.5000 211° Southwest 271 312 16,500  Level Northern Cal TRACON
09:30PM 37.3467 -121.5183 202° Southwest 266 306 16,500 -60 Level Oakland Center
09:31PM 37.2861 -121.5583 208° Southwest 271 312 16,400 -1,140 Descending Oakland Center
09:32PM 37.2175 -121.6067 209° Southwest 280 322 14,200 -2,880 Descending Oakland Center
09:33PM 37.1428 -121.6625 211° Southwest 262 302 10,500 -3,000 Descending Oakland Center
09:34PM 37.0953 -121.6975 210° Southwest 252 290 8,100 -1,800 Descending Oakland Center
09:35PM 37.0322 -121.7364 206° Southwest 248 285 6,900 -1,200 Descending Oakland Center